Terminal Aerodrome Forecast
Issued by NWS

Home | Current Version | Previous Version | Text Only | Print | Product List | Glossary On
Versions: 1 2 3 4 5 6 7 8 9 10 11 12
902
FTUS45 KABQ 052323
TAFLVS
TAF
KLVS 052323Z 0600/0624 17014G24KT P6SM FEW120
     FM060200 18011KT P6SM FEW120
     FM061600 19015G24KT P6SM SKC
     FM062000 20024G34KT P6SM FEW130=

USA.gov is the U.S. government's official web portal to all federal, state and local government web resources and services.